sensor_id;sensor_type;location;lat;lon;timestamp;P1;durP1;ratioP1;P2;durP2;ratioP2
67554;SDS011;54385;53.516;49.456;2023-04-19T00:02:09;6.82;;;2.53;;
67554;SDS011;54385;53.516;49.456;2023-04-19T00:04:35;5.57;;;2.35;;
67554;SDS011;54385;53.516;49.456;2023-04-19T00:07:02;11.55;;;4.05;;
67554;SDS011;54385;53.516;49.456;2023-04-19T00:09:29;6.22;;;2.90;;
67554;SDS011;54385;53.516;49.456;2023-04-19T00:11:55;5.50;;;2.47;;
67554;SDS011;54385;53.516;49.456;2023-04-19T00:14:22;6.22;;;3.28;;
67554;SDS011;54385;53.516;49.456;2023-04-19T00:16:48;8.23;;;2.75;;
67554;SDS011;54385;53.516;49.456;2023-04-19T00:19:14;4.32;;;2.17;;
67554;SDS011;54385;53.516;49.456;2023-04-19T00:21:41;3.67;;;2.30;;
67554;SDS011;54385;53.516;49.456;2023-04-19T00:24:07;4.80;;;2.47;;
67554;SDS011;54385;53.516;49.456;2023-04-19T00:26:33;4.38;;;1.80;;
67554;SDS011;54385;53.516;49.456;2023-04-19T00:29:00;6.25;;;2.72;;
67554;SDS011;54385;53.516;49.456;2023-04-19T00:31:26;5.35;;;2.35;;
67554;SDS011;54385;53.516;49.456;2023-04-19T00:33:53;4.18;;;2.58;;
67554;SDS011;54385;53.516;49.456;2023-04-19T00:36:19;5.85;;;2.47;;
67554;SDS011;54385;53.516;49.456;2023-04-19T00:38:45;4.80;;;2.33;;
67554;SDS011;54385;53.516;49.456;2023-04-19T00:41:12;6.10;;;2.97;;
67554;SDS011;54385;53.516;49.456;2023-04-19T00:43:38;15.70;;;4.68;;
67554;SDS011;54385;53.516;49.456;2023-04-19T00:48:31;8.02;;;3.03;;
67554;SDS011;54385;53.516;49.456;2023-04-19T00:51:00;9.93;;;3.40;;
67554;SDS011;54385;53.516;49.456;2023-04-19T00:53:27;14.20;;;5.28;;
67554;SDS011;54385;53.516;49.456;2023-04-19T00:55:53;11.93;;;2.80;;
67554;SDS011;54385;53.516;49.456;2023-04-19T00:58:25;8.55;;;2.67;;
67554;SDS011;54385;53.516;49.456;2023-04-19T01:00:54;11.05;;;2.75;;
67554;SDS011;54385;53.516;49.456;2023-04-19T01:03:20;9.38;;;3.25;;
67554;SDS011;54385;53.516;49.456;2023-04-19T01:05:47;15.00;;;3.88;;
67554;SDS011;54385;53.516;49.456;2023-04-19T01:08:14;12.40;;;3.00;;
67554;SDS011;54385;53.516;49.456;2023-04-19T01:13:07;12.98;;;3.30;;
67554;SDS011;54385;53.516;49.456;2023-04-19T01:15:33;8.90;;;4.28;;
67554;SDS011;54385;53.516;49.456;2023-04-19T01:18:01;8.57;;;3.70;;
67554;SDS011;54385;53.516;49.456;2023-04-19T01:22:53;9.70;;;3.53;;
67554;SDS011;54385;53.516;49.456;2023-04-19T01:25:20;21.92;;;4.40;;
67554;SDS011;54385;53.516;49.456;2023-04-19T01:27:46;15.38;;;4.72;;
67554;SDS011;54385;53.516;49.456;2023-04-19T01:30:13;12.30;;;3.45;;
67554;SDS011;54385;53.516;49.456;2023-04-19T01:35:06;14.90;;;3.10;;
67554;SDS011;54385;53.516;49.456;2023-04-19T01:37:35;6.68;;;2.60;;
67554;SDS011;54385;53.516;49.456;2023-04-19T01:40:03;4.50;;;2.38;;
67554;SDS011;54385;53.516;49.456;2023-04-19T01:42:30;11.93;;;2.67;;
67554;SDS011;54385;53.516;49.456;2023-04-19T01:44:57;8.13;;;3.13;;
67554;SDS011;54385;53.516;49.456;2023-04-19T01:47:23;7.10;;;3.03;;
67554;SDS011;54385;53.516;49.456;2023-04-19T01:49:49;10.50;;;2.92;;
67554;SDS011;54385;53.516;49.456;2023-04-19T01:52:16;9.48;;;3.50;;
67554;SDS011;54385;53.516;49.456;2023-04-19T01:54:42;11.65;;;3.45;;
67554;SDS011;54385;53.516;49.456;2023-04-19T01:57:09;54.03;;;6.07;;
67554;SDS011;54385;53.516;49.456;2023-04-19T01:59:35;25.83;;;5.18;;
67554;SDS011;54385;53.516;49.456;2023-04-19T02:02:01;24.55;;;4.68;;
67554;SDS011;54385;53.516;49.456;2023-04-19T02:04:32;8.48;;;3.25;;
67554;SDS011;54385;53.516;49.456;2023-04-19T02:06:59;37.58;;;5.82;;
67554;SDS011;54385;53.516;49.456;2023-04-19T02:09:25;25.00;;;5.57;;
67554;SDS011;54385;53.516;49.456;2023-04-19T02:11:52;16.58;;;3.80;;
67554;SDS011;54385;53.516;49.456;2023-04-19T02:14:18;149.23;;;14.13;;
67554;SDS011;54385;53.516;49.456;2023-04-19T02:16:44;86.28;;;8.77;;
67554;SDS011;54385;53.516;49.456;2023-04-19T02:19:11;54.40;;;6.55;;
67554;SDS011;54385;53.516;49.456;2023-04-19T02:21:38;38.72;;;5.55;;
67554;SDS011;54385;53.516;49.456;2023-04-19T02:24:05;27.20;;;4.43;;
67554;SDS011;54385;53.516;49.456;2023-04-19T02:26:31;8.63;;;2.72;;
67554;SDS011;54385;53.516;49.456;2023-04-19T02:28:58;8.13;;;2.88;;
67554;SDS011;54385;53.516;49.456;2023-04-19T02:31:25;9.57;;;2.38;;
67554;SDS011;54385;53.516;49.456;2023-04-19T02:33:51;8.60;;;2.70;;
67554;SDS011;54385;53.516;49.456;2023-04-19T02:36:18;8.35;;;2.88;;
67554;SDS011;54385;53.516;49.456;2023-04-19T02:38:44;18.15;;;3.30;;
67554;SDS011;54385;53.516;49.456;2023-04-19T02:41:10;11.15;;;2.60;;
67554;SDS011;54385;53.516;49.456;2023-04-19T02:43:37;12.40;;;3.75;;
67554;SDS011;54385;53.516;49.456;2023-04-19T02:46:03;9.20;;;3.08;;
67554;SDS011;54385;53.516;49.456;2023-04-19T02:48:30;5.40;;;2.22;;
67554;SDS011;54385;53.516;49.456;2023-04-19T02:50:56;5.22;;;2.47;;
67554;SDS011;54385;53.516;49.456;2023-04-19T02:53:23;12.77;;;3.20;;
67554;SDS011;54385;53.516;49.456;2023-04-19T02:58:16;12.07;;;3.03;;
67554;SDS011;54385;53.516;49.456;2023-04-19T03:00:42;14.82;;;3.35;;
67554;SDS011;54385;53.516;49.456;2023-04-19T03:03:09;16.30;;;4.07;;
67554;SDS011;54385;53.516;49.456;2023-04-19T03:05:36;8.63;;;3.38;;
67554;SDS011;54385;53.516;49.456;2023-04-19T03:08:02;10.68;;;3.30;;
67554;SDS011;54385;53.516;49.456;2023-04-19T03:10:33;10.13;;;2.70;;
67554;SDS011;54385;53.516;49.456;2023-04-19T03:15:26;9.77;;;2.55;;
67554;SDS011;54385;53.516;49.456;2023-04-19T03:20:21;9.63;;;2.92;;
67554;SDS011;54385;53.516;49.456;2023-04-19T03:22:48;9.07;;;2.67;;
67554;SDS011;54385;53.516;49.456;2023-04-19T03:28:24;12.15;;;2.60;;
67554;SDS011;54385;53.516;49.456;2023-04-19T03:33:48;10.30;;;2.97;;
67554;SDS011;54385;53.516;49.456;2023-04-19T03:36:15;8.70;;;2.85;;
67554;SDS011;54385;53.516;49.456;2023-04-19T03:41:22;11.90;;;2.80;;
67554;SDS011;54385;53.516;49.456;2023-04-19T03:43:50;4.82;;;1.92;;
67554;SDS011;54385;53.516;49.456;2023-04-19T03:46:20;9.70;;;2.42;;
67554;SDS011;54385;53.516;49.456;2023-04-19T03:51:13;4.30;;;1.90;;
67554;SDS011;54385;53.516;49.456;2023-04-19T03:53:40;10.05;;;2.42;;
67554;SDS011;54385;53.516;49.456;2023-04-19T03:58:33;9.43;;;2.15;;
67554;SDS011;54385;53.516;49.456;2023-04-19T04:01:00;8.85;;;2.08;;
67554;SDS011;54385;53.516;49.456;2023-04-19T04:03:27;5.95;;;2.20;;
67554;SDS011;54385;53.516;49.456;2023-04-19T04:05:56;5.25;;;1.90;;
67554;SDS011;54385;53.516;49.456;2023-04-19T04:08:23;8.07;;;2.00;;
67554;SDS011;54385;53.516;49.456;2023-04-19T04:10:49;8.45;;;2.28;;
67554;SDS011;54385;53.516;49.456;2023-04-19T04:13:16;8.85;;;2.72;;
67554;SDS011;54385;53.516;49.456;2023-04-19T04:18:11;14.10;;;2.15;;
67554;SDS011;54385;53.516;49.456;2023-04-19T04:20:42;6.38;;;2.35;;
67554;SDS011;54385;53.516;49.456;2023-04-19T04:23:09;7.18;;;2.90;;
67554;SDS011;54385;53.516;49.456;2023-04-19T04:25:40;6.10;;;2.45;;
67554;SDS011;54385;53.516;49.456;2023-04-19T04:28:07;7.43;;;2.10;;
67554;SDS011;54385;53.516;49.456;2023-04-19T04:30:37;6.13;;;1.70;;
67554;SDS011;54385;53.516;49.456;2023-04-19T04:33:08;3.00;;;1.90;;
67554;SDS011;54385;53.516;49.456;2023-04-19T04:35:40;3.13;;;1.58;;
67554;SDS011;54385;53.516;49.456;2023-04-19T04:38:08;3.42;;;2.03;;
67554;SDS011;54385;53.516;49.456;2023-04-19T04:40:38;3.50;;;1.55;;
67554;SDS011;54385;53.516;49.456;2023-04-19T04:43:07;6.90;;;2.15;;
67554;SDS011;54385;53.516;49.456;2023-04-19T04:45:42;1.90;;;1.50;;
67554;SDS011;54385;53.516;49.456;2023-04-19T04:48:14;2.13;;;1.55;;
67554;SDS011;54385;53.516;49.456;2023-04-19T04:50:41;3.90;;;1.50;;
67554;SDS011;54385;53.516;49.456;2023-04-19T04:53:08;2.70;;;1.65;;
67554;SDS011;54385;53.516;49.456;2023-04-19T04:55:39;4.57;;;1.50;;
67554;SDS011;54385;53.516;49.456;2023-04-19T04:58:11;4.07;;;1.58;;
67554;SDS011;54385;53.516;49.456;2023-04-19T05:00:38;4.75;;;1.65;;
67554;SDS011;54385;53.516;49.456;2023-04-19T05:03:13;5.32;;;2.13;;
67554;SDS011;54385;53.516;49.456;2023-04-19T05:05:42;3.08;;;1.50;;
67554;SDS011;54385;53.516;49.456;2023-04-19T05:08:09;7.95;;;1.60;;
67554;SDS011;54385;53.516;49.456;2023-04-19T05:10:36;4.20;;;1.55;;
67554;SDS011;54385;53.516;49.456;2023-04-19T05:13:02;2.67;;;1.23;;
67554;SDS011;54385;53.516;49.456;2023-04-19T05:15:29;1.83;;;1.40;;
67554;SDS011;54385;53.516;49.456;2023-04-19T05:17:55;2.38;;;1.30;;
67554;SDS011;54385;53.516;49.456;2023-04-19T05:20:25;5.68;;;1.48;;
67554;SDS011;54385;53.516;49.456;2023-04-19T05:22:55;2.35;;;1.40;;
67554;SDS011;54385;53.516;49.456;2023-04-19T05:25:28;2.25;;;1.10;;
67554;SDS011;54385;53.516;49.456;2023-04-19T05:27:58;3.85;;;1.23;;
67554;SDS011;54385;53.516;49.456;2023-04-19T05:30:25;2.63;;;1.30;;
67554;SDS011;54385;53.516;49.456;2023-04-19T05:33:03;3.30;;;1.10;;
67554;SDS011;54385;53.516;49.456;2023-04-19T05:35:30;5.10;;;1.55;;
67554;SDS011;54385;53.516;49.456;2023-04-19T05:37:56;2.95;;;1.27;;
67554;SDS011;54385;53.516;49.456;2023-04-19T05:40:23;5.25;;;1.63;;
67554;SDS011;54385;53.516;49.456;2023-04-19T05:42:53;6.43;;;1.27;;
67554;SDS011;54385;53.516;49.456;2023-04-19T05:45:20;2.50;;;1.08;;
67554;SDS011;54385;53.516;49.456;2023-04-19T05:47:49;2.85;;;1.42;;
67554;SDS011;54385;53.516;49.456;2023-04-19T05:50:16;6.10;;;1.33;;
67554;SDS011;54385;53.516;49.456;2023-04-19T05:52:47;2.38;;;1.08;;
67554;SDS011;54385;53.516;49.456;2023-04-19T05:55:13;3.10;;;1.00;;
67554;SDS011;54385;53.516;49.456;2023-04-19T05:57:40;4.70;;;1.35;;
67554;SDS011;54385;53.516;49.456;2023-04-19T06:00:06;4.15;;;1.85;;
67554;SDS011;54385;53.516;49.456;2023-04-19T06:02:37;3.78;;;1.70;;
67554;SDS011;54385;53.516;49.456;2023-04-19T06:05:04;2.55;;;1.20;;
67554;SDS011;54385;53.516;49.456;2023-04-19T06:07:33;3.13;;;1.30;;
67554;SDS011;54385;53.516;49.456;2023-04-19T06:10:06;4.00;;;1.35;;
67554;SDS011;54385;53.516;49.456;2023-04-19T06:12:33;5.70;;;1.60;;
67554;SDS011;54385;53.516;49.456;2023-04-19T06:15:02;2.65;;;0.93;;
67554;SDS011;54385;53.516;49.456;2023-04-19T06:17:30;4.65;;;1.42;;
67554;SDS011;54385;53.516;49.456;2023-04-19T06:19:57;1.67;;;1.30;;
67554;SDS011;54385;53.516;49.456;2023-04-19T06:22:24;2.78;;;1.10;;
67554;SDS011;54385;53.516;49.456;2023-04-19T06:24:51;1.42;;;1.15;;
67554;SDS011;54385;53.516;49.456;2023-04-19T06:27:17;5.13;;;1.05;;
67554;SDS011;54385;53.516;49.456;2023-04-19T06:29:44;1.73;;;1.15;;
67554;SDS011;54385;53.516;49.456;2023-04-19T06:32:10;2.70;;;1.00;;
67554;SDS011;54385;53.516;49.456;2023-04-19T06:34:37;6.50;;;1.30;;
67554;SDS011;54385;53.516;49.456;2023-04-19T06:37:04;4.72;;;1.23;;
67554;SDS011;54385;53.516;49.456;2023-04-19T06:39:36;2.03;;;1.30;;
67554;SDS011;54385;53.516;49.456;2023-04-19T06:42:06;1.48;;;1.17;;
67554;SDS011;54385;53.516;49.456;2023-04-19T06:44:33;8.52;;;1.40;;
67554;SDS011;54385;53.516;49.456;2023-04-19T06:47:00;3.38;;;1.45;;
67554;SDS011;54385;53.516;49.456;2023-04-19T06:49:27;1.10;;;0.80;;
67554;SDS011;54385;53.516;49.456;2023-04-19T06:51:58;3.35;;;1.10;;
67554;SDS011;54385;53.516;49.456;2023-04-19T06:54:24;4.40;;;1.25;;
67554;SDS011;54385;53.516;49.456;2023-04-19T06:56:51;3.00;;;1.83;;
67554;SDS011;54385;53.516;49.456;2023-04-19T06:59:18;4.20;;;1.63;;
67554;SDS011;54385;53.516;49.456;2023-04-19T07:01:45;2.92;;;1.10;;
67554;SDS011;54385;53.516;49.456;2023-04-19T07:04:20;2.15;;;1.25;;
67554;SDS011;54385;53.516;49.456;2023-04-19T07:16:27;6.85;;;1.95;;
67554;SDS011;54385;53.516;49.456;2023-04-19T07:18:58;6.15;;;1.75;;
67554;SDS011;54385;53.516;49.456;2023-04-19T07:21:25;11.23;;;1.63;;
67554;SDS011;54385;53.516;49.456;2023-04-19T07:23:58;4.40;;;1.40;;
67554;SDS011;54385;53.516;49.456;2023-04-19T07:26:25;2.22;;;1.27;;
67554;SDS011;54385;53.516;49.456;2023-04-19T07:28:52;2.35;;;1.30;;
67554;SDS011;54385;53.516;49.456;2023-04-19T07:31:19;3.90;;;1.30;;
67554;SDS011;54385;53.516;49.456;2023-04-19T07:33:46;3.95;;;1.52;;
67554;SDS011;54385;53.516;49.456;2023-04-19T07:36:17;5.68;;;1.42;;
67554;SDS011;54385;53.516;49.456;2023-04-19T07:38:45;4.18;;;1.20;;
67554;SDS011;54385;53.516;49.456;2023-04-19T07:41:12;5.93;;;1.58;;
67554;SDS011;54385;53.516;49.456;2023-04-19T07:43:39;2.58;;;1.25;;
67554;SDS011;54385;53.516;49.456;2023-04-19T07:46:10;6.55;;;1.55;;
67554;SDS011;54385;53.516;49.456;2023-04-19T07:48:38;1.70;;;1.00;;
67554;SDS011;54385;53.516;49.456;2023-04-19T07:54:28;6.13;;;1.33;;
67554;SDS011;54385;53.516;49.456;2023-04-19T07:56:57;6.93;;;1.38;;
67554;SDS011;54385;53.516;49.456;2023-04-19T07:59:24;4.80;;;1.50;;
67554;SDS011;54385;53.516;49.456;2023-04-19T08:01:51;4.57;;;1.30;;
67554;SDS011;54385;53.516;49.456;2023-04-19T08:04:18;2.00;;;1.10;;
67554;SDS011;54385;53.516;49.456;2023-04-19T08:06:53;3.10;;;1.30;;
67554;SDS011;54385;53.516;49.456;2023-04-19T08:09:24;5.15;;;1.17;;
67554;SDS011;54385;53.516;49.456;2023-04-19T08:12:03;1.70;;;1.20;;
67554;SDS011;54385;53.516;49.456;2023-04-19T08:15:35;5.40;;;1.30;;
67554;SDS011;54385;53.516;49.456;2023-04-19T08:18:22;5.18;;;1.20;;
67554;SDS011;54385;53.516;49.456;2023-04-19T08:20:50;4.35;;;1.33;;
67554;SDS011;54385;53.516;49.456;2023-04-19T08:23:22;3.38;;;1.10;;
67554;SDS011;54385;53.516;49.456;2023-04-19T08:25:49;7.25;;;1.45;;
67554;SDS011;54385;53.516;49.456;2023-04-19T08:28:20;5.38;;;1.20;;
67554;SDS011;54385;53.516;49.456;2023-04-19T08:33:18;3.78;;;1.15;;
67554;SDS011;54385;53.516;49.456;2023-04-19T08:35:45;10.80;;;1.70;;
67554;SDS011;54385;53.516;49.456;2023-04-19T08:38:15;2.97;;;1.20;;
67554;SDS011;54385;53.516;49.456;2023-04-19T08:40:45;6.28;;;1.17;;
67554;SDS011;54385;53.516;49.456;2023-04-19T08:43:18;2.15;;;1.20;;
67554;SDS011;54385;53.516;49.456;2023-04-19T08:45:45;3.05;;;1.38;;
67554;SDS011;54385;53.516;49.456;2023-04-19T08:48:14;2.70;;;1.10;;
67554;SDS011;54385;53.516;49.456;2023-04-19T08:50:42;5.40;;;1.30;;
67554;SDS011;54385;53.516;49.456;2023-04-19T08:53:27;2.05;;;1.00;;
67554;SDS011;54385;53.516;49.456;2023-04-19T08:55:57;1.30;;;1.10;;
67554;SDS011;54385;53.516;49.456;2023-04-19T08:58:24;4.05;;;1.65;;
67554;SDS011;54385;53.516;49.456;2023-04-19T09:00:51;2.35;;;1.25;;
67554;SDS011;54385;53.516;49.456;2023-04-19T09:03:20;8.70;;;1.55;;
67554;SDS011;54385;53.516;49.456;2023-04-19T09:05:49;2.05;;;1.13;;
67554;SDS011;54385;53.516;49.456;2023-04-19T09:08:20;4.32;;;1.70;;
67554;SDS011;54385;53.516;49.456;2023-04-19T09:10:59;4.70;;;1.45;;
67554;SDS011;54385;53.516;49.456;2023-04-19T09:13:27;6.18;;;1.52;;
67554;SDS011;54385;53.516;49.456;2023-04-19T09:15:55;5.70;;;1.50;;
67554;SDS011;54385;53.516;49.456;2023-04-19T09:18:23;2.25;;;1.20;;
67554;SDS011;54385;53.516;49.456;2023-04-19T09:20:50;11.40;;;1.63;;
67554;SDS011;54385;53.516;49.456;2023-04-19T09:23:57;9.88;;;1.95;;
67554;SDS011;54385;53.516;49.456;2023-04-19T09:26:36;2.47;;;1.25;;
67554;SDS011;54385;53.516;49.456;2023-04-19T09:29:18;3.17;;;1.23;;
67554;SDS011;54385;53.516;49.456;2023-04-19T09:31:55;4.05;;;1.40;;
67554;SDS011;54385;53.516;49.456;2023-04-19T09:34:25;3.13;;;1.10;;
67554;SDS011;54385;53.516;49.456;2023-04-19T09:36:54;1.88;;;1.00;;
67554;SDS011;54385;53.516;49.456;2023-04-19T09:39:36;2.88;;;1.17;;
67554;SDS011;54385;53.516;49.456;2023-04-19T09:42:03;4.82;;;1.10;;
67554;SDS011;54385;53.516;49.456;2023-04-19T09:44:32;5.28;;;1.60;;
67554;SDS011;54385;53.516;49.456;2023-04-19T09:47:00;3.13;;;1.00;;
67554;SDS011;54385;53.516;49.456;2023-04-19T09:49:26;2.50;;;1.55;;
67554;SDS011;54385;53.516;49.456;2023-04-19T09:51:55;6.60;;;1.70;;
67554;SDS011;54385;53.516;49.456;2023-04-19T09:54:24;1.58;;;0.90;;
67554;SDS011;54385;53.516;49.456;2023-04-19T09:56:55;1.92;;;1.17;;
67554;SDS011;54385;53.516;49.456;2023-04-19T09:59:21;2.85;;;1.23;;
67554;SDS011;54385;53.516;49.456;2023-04-19T10:01:52;4.38;;;1.30;;
67554;SDS011;54385;53.516;49.456;2023-04-19T10:04:21;5.85;;;1.20;;
67554;SDS011;54385;53.516;49.456;2023-04-19T10:06:48;1.65;;;1.10;;
67554;SDS011;54385;53.516;49.456;2023-04-19T10:09:19;3.35;;;1.23;;
67554;SDS011;54385;53.516;49.456;2023-04-19T10:11:51;4.68;;;1.30;;
67554;SDS011;54385;53.516;49.456;2023-04-19T10:14:22;1.50;;;1.10;;
67554;SDS011;54385;53.516;49.456;2023-04-19T10:16:53;5.82;;;1.92;;
67554;SDS011;54385;53.516;49.456;2023-04-19T10:19:21;6.88;;;1.75;;
67554;SDS011;54385;53.516;49.456;2023-04-19T10:21:49;3.13;;;1.27;;
67554;SDS011;54385;53.516;49.456;2023-04-19T10:24:16;3.50;;;1.40;;
67554;SDS011;54385;53.516;49.456;2023-04-19T10:29:55;6.82;;;1.80;;
67554;SDS011;54385;53.516;49.456;2023-04-19T10:32:30;3.17;;;1.40;;
67554;SDS011;54385;53.516;49.456;2023-04-19T10:35:08;2.53;;;1.50;;
67554;SDS011;54385;53.516;49.456;2023-04-19T10:38:04;7.97;;;2.15;;
67554;SDS011;54385;53.516;49.456;2023-04-19T10:45:53;5.63;;;1.40;;
67554;SDS011;54385;53.516;49.456;2023-04-19T10:51:15;1.92;;;1.15;;
67554;SDS011;54385;53.516;49.456;2023-04-19T10:53:47;2.33;;;1.27;;
67554;SDS011;54385;53.516;49.456;2023-04-19T10:56:16;3.97;;;1.23;;
67554;SDS011;54385;53.516;49.456;2023-04-19T11:01:42;4.07;;;1.35;;
67554;SDS011;54385;53.516;49.456;2023-04-19T11:04:11;4.03;;;1.38;;
67554;SDS011;54385;53.516;49.456;2023-04-19T11:11:51;5.30;;;1.25;;
67554;SDS011;54385;53.516;49.456;2023-04-19T11:14:22;4.78;;;1.30;;
67554;SDS011;54385;53.516;49.456;2023-04-19T11:16:49;20.17;;;3.88;;
67554;SDS011;54385;53.516;49.456;2023-04-19T11:19:16;1.75;;;1.27;;
67554;SDS011;54385;53.516;49.456;2023-04-19T11:21:46;2.95;;;1.20;;
67554;SDS011;54385;53.516;49.456;2023-04-19T11:24:15;2.50;;;1.13;;
67554;SDS011;54385;53.516;49.456;2023-04-19T11:26:44;2.60;;;1.45;;
67554;SDS011;54385;53.516;49.456;2023-04-19T11:29:11;3.28;;;1.48;;
67554;SDS011;54385;53.516;49.456;2023-04-19T11:31:38;4.72;;;1.58;;
67554;SDS011;54385;53.516;49.456;2023-04-19T11:34:04;2.40;;;1.23;;
67554;SDS011;54385;53.516;49.456;2023-04-19T11:36:31;2.30;;;1.50;;
67554;SDS011;54385;53.516;49.456;2023-04-19T11:39:03;2.75;;;1.23;;
67554;SDS011;54385;53.516;49.456;2023-04-19T11:41:38;4.47;;;1.42;;
67554;SDS011;54385;53.516;49.456;2023-04-19T11:44:17;2.95;;;1.10;;
67554;SDS011;54385;53.516;49.456;2023-04-19T11:46:57;2.92;;;1.30;;
67554;SDS011;54385;53.516;49.456;2023-04-19T11:49:29;6.03;;;1.30;;
67554;SDS011;54385;53.516;49.456;2023-04-19T11:51:58;3.08;;;1.58;;
67554;SDS011;54385;53.516;49.456;2023-04-19T11:54:28;9.55;;;2.25;;
67554;SDS011;54385;53.516;49.456;2023-04-19T11:56:59;4.70;;;1.70;;
67554;SDS011;54385;53.516;49.456;2023-04-19T11:59:35;5.68;;;1.60;;
67554;SDS011;54385;53.516;49.456;2023-04-19T12:02:08;3.67;;;1.70;;
67554;SDS011;54385;53.516;49.456;2023-04-19T12:04:37;4.18;;;1.75;;
67554;SDS011;54385;53.516;49.456;2023-04-19T12:07:04;10.13;;;2.35;;
67554;SDS011;54385;53.516;49.456;2023-04-19T12:09:32;2.90;;;1.70;;
67554;SDS011;54385;53.516;49.456;2023-04-19T12:14:29;5.13;;;1.30;;
67554;SDS011;54385;53.516;49.456;2023-04-19T12:17:06;4.72;;;1.45;;
67554;SDS011;54385;53.516;49.456;2023-04-19T12:19:42;5.30;;;1.30;;
67554;SDS011;54385;53.516;49.456;2023-04-19T12:22:15;2.35;;;1.42;;
67554;SDS011;54385;53.516;49.456;2023-04-19T12:24:45;3.95;;;1.50;;
67554;SDS011;54385;53.516;49.456;2023-04-19T12:27:12;5.63;;;1.83;;
67554;SDS011;54385;53.516;49.456;2023-04-19T12:29:42;2.63;;;1.27;;
67554;SDS011;54385;53.516;49.456;2023-04-19T12:32:12;4.18;;;1.70;;
67554;SDS011;54385;53.516;49.456;2023-04-19T12:34:44;4.35;;;1.65;;
67554;SDS011;54385;53.516;49.456;2023-04-19T12:37:10;3.92;;;1.52;;
67554;SDS011;54385;53.516;49.456;2023-04-19T12:39:38;3.15;;;2.28;;
67554;SDS011;54385;53.516;49.456;2023-04-19T12:42:07;8.45;;;2.60;;
67554;SDS011;54385;53.516;49.456;2023-04-19T12:44:34;4.75;;;2.35;;
67554;SDS011;54385;53.516;49.456;2023-04-19T12:47:00;3.15;;;1.85;;
67554;SDS011;54385;53.516;49.456;2023-04-19T12:49:27;3.95;;;1.52;;
67554;SDS011;54385;53.516;49.456;2023-04-19T12:51:53;3.05;;;1.20;;
67554;SDS011;54385;53.516;49.456;2023-04-19T12:54:20;9.80;;;1.70;;
67554;SDS011;54385;53.516;49.456;2023-04-19T12:56:46;5.50;;;1.40;;
67554;SDS011;54385;53.516;49.456;2023-04-19T12:59:13;3.70;;;1.55;;
67554;SDS011;54385;53.516;49.456;2023-04-19T13:01:40;7.43;;;1.58;;
67554;SDS011;54385;53.516;49.456;2023-04-19T13:04:06;4.15;;;1.52;;
67554;SDS011;54385;53.516;49.456;2023-04-19T13:06:36;3.30;;;1.20;;
67554;SDS011;54385;53.516;49.456;2023-04-19T13:09:04;4.47;;;1.70;;
67554;SDS011;54385;53.516;49.456;2023-04-19T13:11:30;6.25;;;1.90;;
67554;SDS011;54385;53.516;49.456;2023-04-19T13:13:57;7.32;;;2.00;;
67554;SDS011;54385;53.516;49.456;2023-04-19T13:16:23;2.58;;;1.38;;
67554;SDS011;54385;53.516;49.456;2023-04-19T13:18:50;2.22;;;1.33;;
67554;SDS011;54385;53.516;49.456;2023-04-19T13:21:19;3.78;;;1.55;;
67554;SDS011;54385;53.516;49.456;2023-04-19T13:23:46;7.05;;;2.13;;
67554;SDS011;54385;53.516;49.456;2023-04-19T13:26:12;2.13;;;1.38;;
67554;SDS011;54385;53.516;49.456;2023-04-19T13:28:41;6.25;;;1.63;;
67554;SDS011;54385;53.516;49.456;2023-04-19T13:31:09;4.78;;;1.50;;
67554;SDS011;54385;53.516;49.456;2023-04-19T13:33:39;4.93;;;1.83;;
67554;SDS011;54385;53.516;49.456;2023-04-19T13:36:05;20.42;;;2.83;;
67554;SDS011;54385;53.516;49.456;2023-04-19T13:38:32;3.97;;;1.67;;
67554;SDS011;54385;53.516;49.456;2023-04-19T13:41:01;3.15;;;1.70;;
67554;SDS011;54385;53.516;49.456;2023-04-19T13:43:30;2.70;;;1.30;;
67554;SDS011;54385;53.516;49.456;2023-04-19T13:45:57;8.88;;;2.35;;
67554;SDS011;54385;53.516;49.456;2023-04-19T13:48:23;2.22;;;1.13;;
67554;SDS011;54385;53.516;49.456;2023-04-19T13:50:56;5.57;;;1.50;;
67554;SDS011;54385;53.516;49.456;2023-04-19T13:53:25;3.10;;;1.38;;
67554;SDS011;54385;53.516;49.456;2023-04-19T13:55:53;15.93;;;2.40;;
67554;SDS011;54385;53.516;49.456;2023-04-19T13:58:20;4.13;;;1.30;;
67554;SDS011;54385;53.516;49.456;2023-04-19T14:00:49;3.00;;;1.35;;
67554;SDS011;54385;53.516;49.456;2023-04-19T14:03:16;1.38;;;1.10;;
67554;SDS011;54385;53.516;49.456;2023-04-19T14:05:43;3.45;;;1.48;;
67554;SDS011;54385;53.516;49.456;2023-04-19T14:08:10;9.10;;;2.60;;
67554;SDS011;54385;53.516;49.456;2023-04-19T14:10:36;3.05;;;1.27;;
67554;SDS011;54385;53.516;49.456;2023-04-19T14:13:03;2.85;;;1.30;;
67554;SDS011;54385;53.516;49.456;2023-04-19T14:15:30;7.30;;;1.65;;
67554;SDS011;54385;53.516;49.456;2023-04-19T14:17:57;5.43;;;1.60;;
67554;SDS011;54385;53.516;49.456;2023-04-19T14:20:35;3.28;;;1.40;;
67554;SDS011;54385;53.516;49.456;2023-04-19T14:23:20;3.88;;;1.30;;
67554;SDS011;54385;53.516;49.456;2023-04-19T14:25:57;2.92;;;1.30;;
67554;SDS011;54385;53.516;49.456;2023-04-19T14:28:33;4.15;;;1.58;;
67554;SDS011;54385;53.516;49.456;2023-04-19T14:31:08;2.58;;;1.40;;
67554;SDS011;54385;53.516;49.456;2023-04-19T14:33:41;3.70;;;1.60;;
67554;SDS011;54385;53.516;49.456;2023-04-19T14:36:16;4.25;;;1.50;;
67554;SDS011;54385;53.516;49.456;2023-04-19T14:38:53;6.30;;;1.40;;
67554;SDS011;54385;53.516;49.456;2023-04-19T14:41:30;7.20;;;1.63;;
67554;SDS011;54385;53.516;49.456;2023-04-19T14:44:12;4.68;;;1.30;;
67554;SDS011;54385;53.516;49.456;2023-04-19T14:46:50;2.78;;;1.60;;
67554;SDS011;54385;53.516;49.456;2023-04-19T14:49:33;3.72;;;1.40;;
67554;SDS011;54385;53.516;49.456;2023-04-19T14:52:07;4.72;;;1.20;;
67554;SDS011;54385;53.516;49.456;2023-04-19T14:54:45;2.63;;;1.48;;
67554;SDS011;54385;53.516;49.456;2023-04-19T14:57:17;3.83;;;1.38;;
67554;SDS011;54385;53.516;49.456;2023-04-19T14:59:57;3.40;;;1.30;;
67554;SDS011;54385;53.516;49.456;2023-04-19T15:02:26;5.15;;;1.88;;
67554;SDS011;54385;53.516;49.456;2023-04-19T15:04:53;3.05;;;1.60;;
67554;SDS011;54385;53.516;49.456;2023-04-19T15:07:20;2.70;;;1.27;;
67554;SDS011;54385;53.516;49.456;2023-04-19T15:09:47;4.60;;;1.45;;
67554;SDS011;54385;53.516;49.456;2023-04-19T15:12:13;3.20;;;1.33;;
67554;SDS011;54385;53.516;49.456;2023-04-19T15:14:40;4.90;;;1.23;;
67554;SDS011;54385;53.516;49.456;2023-04-19T15:17:10;2.05;;;1.23;;
67554;SDS011;54385;53.516;49.456;2023-04-19T15:19:39;3.50;;;1.80;;
67554;SDS011;54385;53.516;49.456;2023-04-19T15:22:05;4.78;;;1.60;;
67554;SDS011;54385;53.516;49.456;2023-04-19T15:24:32;2.75;;;1.40;;
67554;SDS011;54385;53.516;49.456;2023-04-19T15:27:00;4.03;;;1.25;;
67554;SDS011;54385;53.516;49.456;2023-04-19T15:29:27;13.30;;;2.28;;
67554;SDS011;54385;53.516;49.456;2023-04-19T15:31:54;3.38;;;1.35;;
67554;SDS011;54385;53.516;49.456;2023-04-19T15:34:21;4.93;;;1.42;;
67554;SDS011;54385;53.516;49.456;2023-04-19T15:36:51;2.90;;;1.60;;
67554;SDS011;54385;53.516;49.456;2023-04-19T15:39:18;8.35;;;1.60;;
67554;SDS011;54385;53.516;49.456;2023-04-19T15:41:45;4.93;;;1.70;;
67554;SDS011;54385;53.516;49.456;2023-04-19T15:44:12;3.10;;;1.50;;
67554;SDS011;54385;53.516;49.456;2023-04-19T15:46:39;7.50;;;1.65;;
67554;SDS011;54385;53.516;49.456;2023-04-19T15:49:05;2.13;;;1.58;;
67554;SDS011;54385;53.516;49.456;2023-04-19T15:51:32;3.08;;;1.45;;
67554;SDS011;54385;53.516;49.456;2023-04-19T15:53:59;2.92;;;1.40;;
67554;SDS011;54385;53.516;49.456;2023-04-19T15:56:25;8.60;;;1.65;;